sensor_id;sensor_type;location;lat;lon;timestamp;temperature;humidity
7738;DHT22;29398;45.328;5.558;2022-09-01T09:53:49;38.50;49.50
7738;DHT22;29398;45.328;5.558;2022-09-01T09:54:59;38.50;50.90
7738;DHT22;29398;45.328;5.558;2022-09-01T09:56:02;38.70;47.80
7738;DHT22;29398;45.328;5.558;2022-09-01T09:57:10;38.70;48.00
7738;DHT22;29398;45.328;5.558;2022-09-01T09:58:13;38.60;49.10
7738;DHT22;29398;45.328;5.558;2022-09-01T09:59:18;38.60;47.60
7738;DHT22;29398;45.328;5.558;2022-09-01T10:00:22;38.10;48.20
7738;DHT22;29398;45.328;5.558;2022-09-01T10:01:29;37.70;49.80
7738;DHT22;29398;45.328;5.558;2022-09-01T10:02:32;37.70;49.20
7738;DHT22;29398;45.328;5.558;2022-09-01T10:03:40;37.70;49.70
7738;DHT22;29398;45.328;5.558;2022-09-01T10:04:42;37.40;48.30
7738;DHT22;29398;45.328;5.558;2022-09-01T10:05:45;36.90;49.90
7738;DHT22;29398;45.328;5.558;2022-09-01T10:06:48;37.00;50.20
7738;DHT22;29398;45.328;5.558;2022-09-01T10:07:49;37.40;48.60
7738;DHT22;29398;45.328;5.558;2022-09-01T10:08:53;37.60;50.20
7738;DHT22;29398;45.328;5.558;2022-09-01T10:09:57;37.80;49.40
7738;DHT22;29398;45.328;5.558;2022-09-01T10:11:00;37.90;49.00
7738;DHT22;29398;45.328;5.558;2022-09-01T10:12:02;38.10;50.10
7738;DHT22;29398;45.328;5.558;2022-09-01T10:13:09;38.40;49.00
7738;DHT22;29398;45.328;5.558;2022-09-01T10:14:16;38.80;49.20
7738;DHT22;29398;45.328;5.558;2022-09-01T10:15:22;39.20;49.50
7738;DHT22;29398;45.328;5.558;2022-09-01T10:16:26;39.50;48.50
7738;DHT22;29398;45.328;5.558;2022-09-01T10:17:33;39.70;47.60
7738;DHT22;29398;45.328;5.558;2022-09-01T10:18:38;39.80;47.30
7738;DHT22;29398;45.328;5.558;2022-09-01T10:19:46;40.00;47.20
7738;DHT22;29398;45.328;5.558;2022-09-01T10:20:53;40.10;46.30
7738;DHT22;29398;45.328;5.558;2022-09-01T10:21:59;39.70;46.10
7738;DHT22;29398;45.328;5.558;2022-09-01T10:23:01;39.10;48.30
7738;DHT22;29398;45.328;5.558;2022-09-01T10:24:11;39.10;47.40
7738;DHT22;29398;45.328;5.558;2022-09-01T10:25:18;39.20;47.30
7738;DHT22;29398;45.328;5.558;2022-09-01T10:26:24;39.50;48.00
7738;DHT22;29398;45.328;5.558;2022-09-01T10:27:29;39.40;46.20
7738;DHT22;29398;45.328;5.558;2022-09-01T10:28:32;38.70;48.50
7738;DHT22;29398;45.328;5.558;2022-09-01T10:29:36;38.60;48.40
7738;DHT22;29398;45.328;5.558;2022-09-01T10:30:43;38.90;47.00
7738;DHT22;29398;45.328;5.558;2022-09-01T10:31:46;39.10;48.10
7738;DHT22;29398;45.328;5.558;2022-09-01T10:32:49;39.40;48.20
7738;DHT22;29398;45.328;5.558;2022-09-01T10:33:52;39.90;48.10
7738;DHT22;29398;45.328;5.558;2022-09-01T10:34:53;40.40;47.20
7738;DHT22;29398;45.328;5.558;2022-09-01T10:35:56;40.90;47.50
7738;DHT22;29398;45.328;5.558;2022-09-01T10:38:04;42.10;45.90
7738;DHT22;29398;45.328;5.558;2022-09-01T10:39:11;42.60;46.20
7738;DHT22;29398;45.328;5.558;2022-09-01T10:41:47;44.20;42.20
7738;DHT22;29398;45.328;5.558;2022-09-01T10:42:50;44.60;42.20
7738;DHT22;29398;45.328;5.558;2022-09-01T10:44:07;44.90;42.90
7738;DHT22;29398;45.328;5.558;2022-09-01T10:45:30;45.20;41.40
7738;DHT22;29398;45.328;5.558;2022-09-01T10:46:42;45.70;41.80
7738;DHT22;29398;45.328;5.558;2022-09-01T10:47:45;45.90;41.60
7738;DHT22;29398;45.328;5.558;2022-09-01T10:48:48;46.20;42.10
7738;DHT22;29398;45.328;5.558;2022-09-01T10:50:01;46.60;42.60
7738;DHT22;29398;45.328;5.558;2022-09-01T10:51:41;47.20;40.70
7738;DHT22;29398;45.328;5.558;2022-09-01T10:53:04;47.70;41.20
7738;DHT22;29398;45.328;5.558;2022-09-01T10:55:14;48.40;40.70
7738;DHT22;29398;45.328;5.558;2022-09-01T10:56:20;48.40;39.90
7738;DHT22;29398;45.328;5.558;2022-09-01T10:57:42;49.00;39.70
7738;DHT22;29398;45.328;5.558;2022-09-01T10:59:52;49.80;38.50
7738;DHT22;29398;45.328;5.558;2022-09-01T11:00:54;50.00;39.60
7738;DHT22;29398;45.328;5.558;2022-09-01T11:06:31;51.60;37.90
7738;DHT22;29398;45.328;5.558;2022-09-01T11:07:35;52.10;36.30
7738;DHT22;29398;45.328;5.558;2022-09-01T11:08:43;51.40;36.80
7738;DHT22;29398;45.328;5.558;2022-09-01T11:09:47;49.10;38.80
7738;DHT22;29398;45.328;5.558;2022-09-01T11:11:22;48.50;39.10
7738;DHT22;29398;45.328;5.558;2022-09-01T11:12:47;48.70;38.70
7738;DHT22;29398;45.328;5.558;2022-09-01T11:13:53;49.20;38.60
7738;DHT22;29398;45.328;5.558;2022-09-01T11:14:56;49.70;38.70
7738;DHT22;29398;45.328;5.558;2022-09-01T11:17:22;50.70;37.10
7738;DHT22;29398;45.328;5.558;2022-09-01T11:18:28;50.90;38.30
7738;DHT22;29398;45.328;5.558;2022-09-01T11:19:40;51.30;37.40
7738;DHT22;29398;45.328;5.558;2022-09-01T11:20:45;51.10;37.60
7738;DHT22;29398;45.328;5.558;2022-09-01T11:23:23;50.20;37.70
7738;DHT22;29398;45.328;5.558;2022-09-01T11:24:50;50.80;38.30
7738;DHT22;29398;45.328;5.558;2022-09-01T11:25:57;51.90;37.80
7738;DHT22;29398;45.328;5.558;2022-09-01T11:27:01;52.40;36.80
7738;DHT22;29398;45.328;5.558;2022-09-01T11:28:36;52.20;37.00
7738;DHT22;29398;45.328;5.558;2022-09-01T11:29:53;52.10;36.10
7738;DHT22;29398;45.328;5.558;2022-09-01T11:30:56;52.10;36.50
7738;DHT22;29398;45.328;5.558;2022-09-01T11:32:00;52.80;36.70
7738;DHT22;29398;45.328;5.558;2022-09-01T11:33:14;53.40;36.20
7738;DHT22;29398;45.328;5.558;2022-09-01T11:34:19;54.30;34.40
7738;DHT22;29398;45.328;5.558;2022-09-01T11:35:25;54.50;34.50
7738;DHT22;29398;45.328;5.558;2022-09-01T11:36:30;54.50;35.50
7738;DHT22;29398;45.328;5.558;2022-09-01T11:37:36;54.60;35.80
7738;DHT22;29398;45.328;5.558;2022-09-01T11:38:46;54.20;35.30
7738;DHT22;29398;45.328;5.558;2022-09-01T11:39:50;54.20;36.00
7738;DHT22;29398;45.328;5.558;2022-09-01T11:40:54;54.20;35.40
7738;DHT22;29398;45.328;5.558;2022-09-01T11:41:58;54.50;34.70
7738;DHT22;29398;45.328;5.558;2022-09-01T11:43:05;54.80;35.50
7738;DHT22;29398;45.328;5.558;2022-09-01T11:44:11;55.00;35.20
7738;DHT22;29398;45.328;5.558;2022-09-01T11:45:17;55.00;34.40
7738;DHT22;29398;45.328;5.558;2022-09-01T11:46:21;54.60;34.70
7738;DHT22;29398;45.328;5.558;2022-09-01T11:47:29;54.00;34.30
7738;DHT22;29398;45.328;5.558;2022-09-01T11:48:32;52.60;35.30
7738;DHT22;29398;45.328;5.558;2022-09-01T11:49:36;51.20;35.30
7738;DHT22;29398;45.328;5.558;2022-09-01T11:50:39;49.50;35.90
7738;DHT22;29398;45.328;5.558;2022-09-01T11:51:44;47.40;36.60
7738;DHT22;29398;45.328;5.558;2022-09-01T11:52:54;45.40;37.30
7738;DHT22;29398;45.328;5.558;2022-09-01T11:53:58;44.10;38.20
7738;DHT22;29398;45.328;5.558;2022-09-01T11:55:01;43.20;38.60
7738;DHT22;29398;45.328;5.558;2022-09-01T11:56:15;42.80;39.30
7738;DHT22;29398;45.328;5.558;2022-09-01T11:57:19;41.70;40.40
7738;DHT22;29398;45.328;5.558;2022-09-01T11:58:32;41.00;40.90
7738;DHT22;29398;45.328;5.558;2022-09-01T11:59:38;40.60;41.60
7738;DHT22;29398;45.328;5.558;2022-09-01T12:00:41;39.90;42.20
7738;DHT22;29398;45.328;5.558;2022-09-01T12:01:43;39.40;42.50
7738;DHT22;29398;45.328;5.558;2022-09-01T12:02:47;38.70;43.10
7738;DHT22;29398;45.328;5.558;2022-09-01T12:03:50;37.10;43.30
7738;DHT22;29398;45.328;5.558;2022-09-01T12:04:54;37.80;44.10
7738;DHT22;29398;45.328;5.558;2022-09-01T12:05:58;36.80;45.70
7738;DHT22;29398;45.328;5.558;2022-09-01T12:07:03;36.00;46.00
7738;DHT22;29398;45.328;5.558;2022-09-01T12:08:14;35.40;46.60
7738;DHT22;29398;45.328;5.558;2022-09-01T12:09:18;35.00;48.20
7738;DHT22;29398;45.328;5.558;2022-09-01T12:10:22;34.70;47.50
7738;DHT22;29398;45.328;5.558;2022-09-01T12:11:28;34.70;47.70
7738;DHT22;29398;45.328;5.558;2022-09-01T12:12:33;34.80;48.00
7738;DHT22;29398;45.328;5.558;2022-09-01T12:13:37;34.90;48.00
7738;DHT22;29398;45.328;5.558;2022-09-01T12:14:39;35.00;47.20
7738;DHT22;29398;45.328;5.558;2022-09-01T12:15:41;35.10;47.30
7738;DHT22;29398;45.328;5.558;2022-09-01T12:16:43;35.10;47.10
7738;DHT22;29398;45.328;5.558;2022-09-01T12:17:44;35.20;47.10
7738;DHT22;29398;45.328;5.558;2022-09-01T12:18:48;34.90;45.40
7738;DHT22;29398;45.328;5.558;2022-09-01T12:19:51;34.60;48.50
7738;DHT22;29398;45.328;5.558;2022-09-01T12:20:55;34.50;48.40
7738;DHT22;29398;45.328;5.558;2022-09-01T12:22:02;34.50;47.70
7738;DHT22;29398;45.328;5.558;2022-09-01T12:23:18;34.60;48.90
7738;DHT22;29398;45.328;5.558;2022-09-01T12:24:23;34.60;49.20
7738;DHT22;29398;45.328;5.558;2022-09-01T12:25:27;34.60;48.20
7738;DHT22;29398;45.328;5.558;2022-09-01T12:26:29;34.60;48.30
7738;DHT22;29398;45.328;5.558;2022-09-01T12:27:31;34.60;48.40
7738;DHT22;29398;45.328;5.558;2022-09-01T12:28:35;34.60;47.20
7738;DHT22;29398;45.328;5.558;2022-09-01T12:29:42;34.60;48.70
7738;DHT22;29398;45.328;5.558;2022-09-01T12:30:43;34.50;46.90
7738;DHT22;29398;45.328;5.558;2022-09-01T12:31:47;34.30;48.00
7738;DHT22;29398;45.328;5.558;2022-09-01T12:32:50;34.30;47.10
7738;DHT22;29398;45.328;5.558;2022-09-01T12:33:53;34.20;47.80
7738;DHT22;29398;45.328;5.558;2022-09-01T12:35:06;34.20;47.10
7738;DHT22;29398;45.328;5.558;2022-09-01T12:36:25;34.00;47.90
7738;DHT22;29398;45.328;5.558;2022-09-01T12:37:28;34.00;49.10
7738;DHT22;29398;45.328;5.558;2022-09-01T12:38:30;33.90;48.50
7738;DHT22;29398;45.328;5.558;2022-09-01T12:39:33;33.80;48.60
7738;DHT22;29398;45.328;5.558;2022-09-01T12:40:36;33.80;48.50
7738;DHT22;29398;45.328;5.558;2022-09-01T12:41:38;33.70;47.80
7738;DHT22;29398;45.328;5.558;2022-09-01T12:42:48;33.70;49.30
7738;DHT22;29398;45.328;5.558;2022-09-01T12:43:51;33.50;48.90
7738;DHT22;29398;45.328;5.558;2022-09-01T12:44:55;33.50;48.50
7738;DHT22;29398;45.328;5.558;2022-09-01T12:45:57;33.40;48.40
7738;DHT22;29398;45.328;5.558;2022-09-01T12:47:03;33.40;47.20
7738;DHT22;29398;45.328;5.558;2022-09-01T12:48:22;33.30;47.80
7738;DHT22;29398;45.328;5.558;2022-09-01T12:49:25;33.20;46.90
7738;DHT22;29398;45.328;5.558;2022-09-01T12:50:45;33.10;48.80
7738;DHT22;29398;45.328;5.558;2022-09-01T12:51:48;33.10;48.10
7738;DHT22;29398;45.328;5.558;2022-09-01T12:52:50;33.10;48.40
7738;DHT22;29398;45.328;5.558;2022-09-01T12:53:55;33.10;48.60
7738;DHT22;29398;45.328;5.558;2022-09-01T12:55:11;33.00;49.70
7738;DHT22;29398;45.328;5.558;2022-09-01T12:56:27;32.90;49.10
7738;DHT22;29398;45.328;5.558;2022-09-01T12:57:32;32.90;48.90
7738;DHT22;29398;45.328;5.558;2022-09-01T12:58:34;32.90;48.00
7738;DHT22;29398;45.328;5.558;2022-09-01T12:59:38;32.90;50.40
7738;DHT22;29398;45.328;5.558;2022-09-01T13:00:55;32.90;49.80
7738;DHT22;29398;45.328;5.558;2022-09-01T13:01:56;32.70;50.50
7738;DHT22;29398;45.328;5.558;2022-09-01T13:03:07;32.90;49.00
7738;DHT22;29398;45.328;5.558;2022-09-01T13:04:14;32.90;49.90
7738;DHT22;29398;45.328;5.558;2022-09-01T13:05:21;33.00;49.80
7738;DHT22;29398;45.328;5.558;2022-09-01T13:06:24;33.00;49.90
7738;DHT22;29398;45.328;5.558;2022-09-01T13:07:25;33.00;49.10
7738;DHT22;29398;45.328;5.558;2022-09-01T13:08:29;33.10;47.60
7738;DHT22;29398;45.328;5.558;2022-09-01T13:09:30;33.00;48.50
7738;DHT22;29398;45.328;5.558;2022-09-01T13:10:35;33.00;47.60
7738;DHT22;29398;45.328;5.558;2022-09-01T13:11:38;32.90;48.50
7738;DHT22;29398;45.328;5.558;2022-09-01T13:12:42;32.80;48.30
7738;DHT22;29398;45.328;5.558;2022-09-01T13:13:44;32.60;48.20
7738;DHT22;29398;45.328;5.558;2022-09-01T13:14:48;32.60;49.00
7738;DHT22;29398;45.328;5.558;2022-09-01T13:15:50;32.60;47.80
7738;DHT22;29398;45.328;5.558;2022-09-01T13:16:52;32.60;47.20
7738;DHT22;29398;45.328;5.558;2022-09-01T13:17:55;32.60;46.90
7738;DHT22;29398;45.328;5.558;2022-09-01T13:18:57;32.60;47.30
7738;DHT22;29398;45.328;5.558;2022-09-01T13:19:59;32.60;48.50
7738;DHT22;29398;45.328;5.558;2022-09-01T13:21:00;32.70;48.50
7738;DHT22;29398;45.328;5.558;2022-09-01T13:22:02;32.70;49.20
7738;DHT22;29398;45.328;5.558;2022-09-01T13:23:04;32.70;50.80
7738;DHT22;29398;45.328;5.558;2022-09-01T13:24:06;32.60;49.20
7738;DHT22;29398;45.328;5.558;2022-09-01T13:25:09;32.50;49.00
7738;DHT22;29398;45.328;5.558;2022-09-01T13:26:11;32.50;49.00
7738;DHT22;29398;45.328;5.558;2022-09-01T13:27:13;32.50;49.40
7738;DHT22;29398;45.328;5.558;2022-09-01T13:28:16;32.50;49.60
7738;DHT22;29398;45.328;5.558;2022-09-01T13:29:18;32.50;49.00
7738;DHT22;29398;45.328;5.558;2022-09-01T13:30:23;32.50;49.10
7738;DHT22;29398;45.328;5.558;2022-09-01T13:31:28;32.50;48.80
7738;DHT22;29398;45.328;5.558;2022-09-01T13:32:31;32.60;48.90
7738;DHT22;29398;45.328;5.558;2022-09-01T13:33:34;32.50;48.50
7738;DHT22;29398;45.328;5.558;2022-09-01T13:34:35;32.50;49.60
7738;DHT22;29398;45.328;5.558;2022-09-01T13:35:39;32.50;49.30
7738;DHT22;29398;45.328;5.558;2022-09-01T13:36:40;32.50;49.20
7738;DHT22;29398;45.328;5.558;2022-09-01T13:37:42;32.50;48.80
7738;DHT22;29398;45.328;5.558;2022-09-01T13:38:43;32.50;47.90
7738;DHT22;29398;45.328;5.558;2022-09-01T13:39:46;32.50;48.00
7738;DHT22;29398;45.328;5.558;2022-09-01T13:40:48;32.50;48.40
7738;DHT22;29398;45.328;5.558;2022-09-01T13:41:51;32.50;49.10
7738;DHT22;29398;45.328;5.558;2022-09-01T13:42:53;32.50;48.50
7738;DHT22;29398;45.328;5.558;2022-09-01T13:43:55;32.50;48.90
7738;DHT22;29398;45.328;5.558;2022-09-01T13:44:57;32.60;50.50
7738;DHT22;29398;45.328;5.558;2022-09-01T13:45:59;32.60;50.30
7738;DHT22;29398;45.328;5.558;2022-09-01T13:47:01;32.70;49.70
7738;DHT22;29398;45.328;5.558;2022-09-01T13:48:03;32.60;49.50
7738;DHT22;29398;45.328;5.558;2022-09-01T13:49:05;32.60;48.70
7738;DHT22;29398;45.328;5.558;2022-09-01T13:50:07;32.60;49.30
7738;DHT22;29398;45.328;5.558;2022-09-01T13:51:10;32.50;49.50
7738;DHT22;29398;45.328;5.558;2022-09-01T13:52:12;32.50;49.50
7738;DHT22;29398;45.328;5.558;2022-09-01T13:53:13;32.40;49.60
7738;DHT22;29398;45.328;5.558;2022-09-01T13:54:15;32.40;49.70
7738;DHT22;29398;45.328;5.558;2022-09-01T13:55:18;32.40;49.50
7738;DHT22;29398;45.328;5.558;2022-09-01T13:56:20;32.40;50.30
7738;DHT22;29398;45.328;5.558;2022-09-01T13:57:22;32.40;50.10
7738;DHT22;29398;45.328;5.558;2022-09-01T13:58:23;32.40;50.10
7738;DHT22;29398;45.328;5.558;2022-09-01T13:59:25;32.40;47.80
7738;DHT22;29398;45.328;5.558;2022-09-01T14:00:28;32.30;48.40
7738;DHT22;29398;45.328;5.558;2022-09-01T14:01:33;32.30;49.50
7738;DHT22;29398;45.328;5.558;2022-09-01T14:02:34;32.30;50.30
7738;DHT22;29398;45.328;5.558;2022-09-01T14:03:36;32.20;48.90
7738;DHT22;29398;45.328;5.558;2022-09-01T14:04:38;32.10;49.10
7738;DHT22;29398;45.328;5.558;2022-09-01T14:05:41;32.10;49.50
7738;DHT22;29398;45.328;5.558;2022-09-01T14:06:44;32.20;49.10
7738;DHT22;29398;45.328;5.558;2022-09-01T14:07:47;32.10;49.80
7738;DHT22;29398;45.328;5.558;2022-09-01T14:08:48;32.20;48.70
7738;DHT22;29398;45.328;5.558;2022-09-01T14:09:50;32.20;49.60
7738;DHT22;29398;45.328;5.558;2022-09-01T14:10:52;32.20;49.60
7738;DHT22;29398;45.328;5.558;2022-09-01T14:11:54;32.20;48.20
7738;DHT22;29398;45.328;5.558;2022-09-01T14:12:57;32.20;48.00
7738;DHT22;29398;45.328;5.558;2022-09-01T14:13:59;32.20;48.60
7738;DHT22;29398;45.328;5.558;2022-09-01T14:15:01;32.20;49.30
7738;DHT22;29398;45.328;5.558;2022-09-01T14:16:09;32.20;50.40
7738;DHT22;29398;45.328;5.558;2022-09-01T14:17:13;32.10;47.10
7738;DHT22;29398;45.328;5.558;2022-09-01T14:18:14;32.10;48.90
7738;DHT22;29398;45.328;5.558;2022-09-01T14:19:16;32.00;48.30
7738;DHT22;29398;45.328;5.558;2022-09-01T14:20:20;32.00;47.50
7738;DHT22;29398;45.328;5.558;2022-09-01T14:21:22;32.00;47.50
7738;DHT22;29398;45.328;5.558;2022-09-01T14:22:23;32.00;47.50
7738;DHT22;29398;45.328;5.558;2022-09-01T14:23:26;31.90;47.80
7738;DHT22;29398;45.328;5.558;2022-09-01T14:24:28;31.90;47.30
7738;DHT22;29398;45.328;5.558;2022-09-01T14:25:30;31.90;48.70
7738;DHT22;29398;45.328;5.558;2022-09-01T14:26:34;31.90;48.00
7738;DHT22;29398;45.328;5.558;2022-09-01T14:27:35;31.90;48.80
7738;DHT22;29398;45.328;5.558;2022-09-01T14:28:38;31.90;48.40
7738;DHT22;29398;45.328;5.558;2022-09-01T14:29:41;31.80;48.80
7738;DHT22;29398;45.328;5.558;2022-09-01T14:30:43;31.70;49.60
7738;DHT22;29398;45.328;5.558;2022-09-01T14:31:45;31.80;50.80
7738;DHT22;29398;45.328;5.558;2022-09-01T14:32:49;31.80;49.60
7738;DHT22;29398;45.328;5.558;2022-09-01T14:33:51;31.80;49.10
7738;DHT22;29398;45.328;5.558;2022-09-01T14:34:54;31.80;49.90
7738;DHT22;29398;45.328;5.558;2022-09-01T14:35:55;31.80;49.90
7738;DHT22;29398;45.328;5.558;2022-09-01T14:36:58;31.90;49.10
7738;DHT22;29398;45.328;5.558;2022-09-01T14:38:00;31.90;48.80
7738;DHT22;29398;45.328;5.558;2022-09-01T14:39:04;31.80;47.70
7738;DHT22;29398;45.328;5.558;2022-09-01T14:40:08;31.80;48.00
7738;DHT22;29398;45.328;5.558;2022-09-01T14:41:12;31.70;47.60
7738;DHT22;29398;45.328;5.558;2022-09-01T14:42:14;31.70;48.80
7738;DHT22;29398;45.328;5.558;2022-09-01T14:43:16;31.70;48.00
7738;DHT22;29398;45.328;5.558;2022-09-01T14:44:17;31.70;48.20
7738;DHT22;29398;45.328;5.558;2022-09-01T14:45:22;31.70;48.80
7738;DHT22;29398;45.328;5.558;2022-09-01T14:46:24;31.70;48.90
7738;DHT22;29398;45.328;5.558;2022-09-01T14:47:26;31.70;49.40
7738;DHT22;29398;45.328;5.558;2022-09-01T14:48:29;31.70;49.80
7738;DHT22;29398;45.328;5.558;2022-09-01T14:49:31;31.70;50.10
7738;DHT22;29398;45.328;5.558;2022-09-01T14:50:39;31.70;49.40
7738;DHT22;29398;45.328;5.558;2022-09-01T14:51:42;31.70;47.30
7738;DHT22;29398;45.328;5.558;2022-09-01T14:52:43;31.60;49.00
7738;DHT22;29398;45.328;5.558;2022-09-01T14:53:45;31.50;49.30
7738;DHT22;29398;45.328;5.558;2022-09-01T14:54:46;31.50;50.00
7738;DHT22;29398;45.328;5.558;2022-09-01T14:55:48;31.50;49.00
7738;DHT22;29398;45.328;5.558;2022-09-01T14:56:49;31.50;48.80
7738;DHT22;29398;45.328;5.558;2022-09-01T14:57:52;31.50;48.00
7738;DHT22;29398;45.328;5.558;2022-09-01T14:58:55;31.50;47.90
7738;DHT22;29398;45.328;5.558;2022-09-01T15:00:00;31.50;48.20
7738;DHT22;29398;45.328;5.558;2022-09-01T15:01:01;31.50;47.20
7738;DHT22;29398;45.328;5.558;2022-09-01T15:02:03;31.50;48.20
7738;DHT22;29398;45.328;5.558;2022-09-01T15:03:04;31.50;47.30
7738;DHT22;29398;45.328;5.558;2022-09-01T15:04:08;31.50;47.50
7738;DHT22;29398;45.328;5.558;2022-09-01T15:05:10;31.40;47.50
7738;DHT22;29398;45.328;5.558;2022-09-01T15:06:14;31.50;48.70
7738;DHT22;29398;45.328;5.558;2022-09-01T15:07:17;31.40;48.40
7738;DHT22;29398;45.328;5.558;2022-09-01T15:08:18;31.40;48.20
7738;DHT22;29398;45.328;5.558;2022-09-01T15:09:21;31.40;48.90
7738;DHT22;29398;45.328;5.558;2022-09-01T15:10:24;31.40;48.20
7738;DHT22;29398;45.328;5.558;2022-09-01T15:11:26;31.40;48.00
7738;DHT22;29398;45.328;5.558;2022-09-01T15:12:28;31.20;47.50
7738;DHT22;29398;45.328;5.558;2022-09-01T15:13:31;31.30;48.50
7738;DHT22;29398;45.328;5.558;2022-09-01T15:14:32;31.30;49.30
7738;DHT22;29398;45.328;5.558;2022-09-01T15:15:34;31.30;48.50
7738;DHT22;29398;45.328;5.558;2022-09-01T15:16:36;31.20;49.30
7738;DHT22;29398;45.328;5.558;2022-09-01T15:17:39;31.30;48.90
7738;DHT22;29398;45.328;5.558;2022-09-01T15:18:40;31.30;49.90
7738;DHT22;29398;45.328;5.558;2022-09-01T15:19:44;31.30;49.90
7738;DHT22;29398;45.328;5.558;2022-09-01T15:20:45;31.30;50.30
7738;DHT22;29398;45.328;5.558;2022-09-01T15:21:46;31.30;49.40
7738;DHT22;29398;45.328;5.558;2022-09-01T15:22:49;31.30;50.00
7738;DHT22;29398;45.328;5.558;2022-09-01T15:23:51;31.30;49.30
7738;DHT22;29398;45.328;5.558;2022-09-01T15:24:53;31.30;50.50
7738;DHT22;29398;45.328;5.558;2022-09-01T15:25:56;31.10;49.50
7738;DHT22;29398;45.328;5.558;2022-09-01T15:26:58;31.00;49.40
7738;DHT22;29398;45.328;5.558;2022-09-01T15:27:59;31.00;49.30
7738;DHT22;29398;45.328;5.558;2022-09-01T15:29:02;31.00;49.40
7738;DHT22;29398;45.328;5.558;2022-09-01T15:30:05;31.10;50.30
7738;DHT22;29398;45.328;5.558;2022-09-01T15:31:16;31.10;49.20
7738;DHT22;29398;45.328;5.558;2022-09-01T15:32:19;31.10;49.40
7738;DHT22;29398;45.328;5.558;2022-09-01T15:33:20;31.10;49.90
7738;DHT22;29398;45.328;5.558;2022-09-01T15:34:22;31.10;49.50
7738;DHT22;29398;45.328;5.558;2022-09-01T15:35:27;31.10;49.70
7738;DHT22;29398;45.328;5.558;2022-09-01T15:36:30;31.10;50.50
7738;DHT22;29398;45.328;5.558;2022-09-01T15:37:32;31.00;49.70
7738;DHT22;29398;45.328;5.558;2022-09-01T15:38:34;31.10;49.50
7738;DHT22;29398;45.328;5.558;2022-09-01T15:39:36;31.10;49.50
7738;DHT22;29398;45.328;5.558;2022-09-01T15:40:40;31.10;49.90
7738;DHT22;29398;45.328;5.558;2022-09-01T15:41:43;31.00;48.80
7738;DHT22;29398;45.328;5.558;2022-09-01T15:42:46;31.00;50.70
7738;DHT22;29398;45.328;5.558;2022-09-01T15:43:47;31.00;50.50
7738;DHT22;29398;45.328;5.558;2022-09-01T15:44:49;31.10;50.30
7738;DHT22;29398;45.328;5.558;2022-09-01T15:45:50;31.00;48.50
7738;DHT22;29398;45.328;5.558;2022-09-01T15:46:53;31.10;49.80
7738;DHT22;29398;45.328;5.558;2022-09-01T15:47:54;31.10;48.80
7738;DHT22;29398;45.328;5.558;2022-09-01T15:48:57;31.00;49.40
7738;DHT22;29398;45.328;5.558;2022-09-01T15:49:58;31.00;49.10
7738;DHT22;29398;45.328;5.558;2022-09-01T15:51:26;30.90;49.10
7738;DHT22;29398;45.328;5.558;2022-09-01T15:52:29;30.90;51.30
7738;DHT22;29398;45.328;5.558;2022-09-01T15:53:30;30.90;50.20
7738;DHT22;29398;45.328;5.558;2022-09-01T15:54:36;30.90;49.10
7738;DHT22;29398;45.328;5.558;2022-09-01T15:55:40;31.00;50.40
7738;DHT22;29398;45.328;5.558;2022-09-01T15:56:43;31.00;50.30
7738;DHT22;29398;45.328;5.558;2022-09-01T15:57:47;30.90;50.00
7738;DHT22;29398;45.328;5.558;2022-09-01T15:58:49;30.90;49.60
7738;DHT22;29398;45.328;5.558;2022-09-01T15:59:51;30.80;49.90
7738;DHT22;29398;45.328;5.558;2022-09-01T16:00:52;30.80;49.90
7738;DHT22;29398;45.328;5.558;2022-09-01T16:01:55;30.80;50.20
7738;DHT22;29398;45.328;5.558;2022-09-01T16:02:57;30.80;49.20
7738;DHT22;29398;45.328;5.558;2022-09-01T16:04:02;30.80;49.50
7738;DHT22;29398;45.328;5.558;2022-09-01T16:05:05;30.80;49.40
7738;DHT22;29398;45.328;5.558;2022-09-01T16:06:08;30.80;49.00
7738;DHT22;29398;45.328;5.558;2022-09-01T16:07:11;30.80;50.10
7738;DHT22;29398;45.328;5.558;2022-09-01T16:08:12;30.80;50.00
7738;DHT22;29398;45.328;5.558;2022-09-01T16:09:14;30.90;50.50
7738;DHT22;29398;45.328;5.558;2022-09-01T16:10:15;30.80;50.80
7738;DHT22;29398;45.328;5.558;2022-09-01T16:11:17;30.90;51.10
7738;DHT22;29398;45.328;5.558;2022-09-01T16:12:18;30.80;50.80
7738;DHT22;29398;45.328;5.558;2022-09-01T16:13:21;30.80;50.80
7738;DHT22;29398;45.328;5.558;2022-09-01T16:14:23;30.80;50.80
7738;DHT22;29398;45.328;5.558;2022-09-01T16:15:26;30.80;51.20
7738;DHT22;29398;45.328;5.558;2022-09-01T16:16:38;30.80;50.80
7738;DHT22;29398;45.328;5.558;2022-09-01T16:18:01;30.80;51.20
7738;DHT22;29398;45.328;5.558;2022-09-01T16:19:06;30.80;51.10
7738;DHT22;29398;45.328;5.558;2022-09-01T16:20:18;30.80;51.50
7738;DHT22;29398;45.328;5.558;2022-09-01T16:21:25;30.70;51.40
7738;DHT22;29398;45.328;5.558;2022-09-01T16:22:33;30.60;51.30
7738;DHT22;29398;45.328;5.558;2022-09-01T16:23:41;30.60;51.50
7738;DHT22;29398;45.328;5.558;2022-09-01T16:24:44;30.50;51.20
7738;DHT22;29398;45.328;5.558;2022-09-01T16:25:47;30.50;50.70
7738;DHT22;29398;45.328;5.558;2022-09-01T16:26:50;30.40;51.70
7738;DHT22;29398;45.328;5.558;2022-09-01T16:27:52;30.40;50.90
7738;DHT22;29398;45.328;5.558;2022-09-01T16:28:56;30.30;51.10
7738;DHT22;29398;45.328;5.558;2022-09-01T16:30:01;30.30;51.20
7738;DHT22;29398;45.328;5.558;2022-09-01T16:31:08;30.20;51.70
7738;DHT22;29398;45.328;5.558;2022-09-01T16:32:12;30.20;50.80
7738;DHT22;29398;45.328;5.558;2022-09-01T16:33:14;30.20;51.50
7738;DHT22;29398;45.328;5.558;2022-09-01T16:34:19;30.20;51.50
7738;DHT22;29398;45.328;5.558;2022-09-01T16:35:29;30.10;51.30
7738;DHT22;29398;45.328;5.558;2022-09-01T16:36:37;30.10;51.10
7738;DHT22;29398;45.328;5.558;2022-09-01T16:37:46;30.10;51.60
7738;DHT22;29398;45.328;5.558;2022-09-01T16:38:54;30.10;50.90
7738;DHT22;29398;45.328;5.558;2022-09-01T16:40:05;30.00;51.30
7738;DHT22;29398;45.328;5.558;2022-09-01T16:41:15;30.00;51.80
7738;DHT22;29398;45.328;5.558;2022-09-01T16:42:27;29.90;51.30
7738;DHT22;29398;45.328;5.558;2022-09-01T16:43:41;29.90;52.00
7738;DHT22;29398;45.328;5.558;2022-09-01T16:44:55;29.80;51.80
7738;DHT22;29398;45.328;5.558;2022-09-01T16:46:01;29.80;51.70
7738;DHT22;29398;45.328;5.558;2022-09-01T16:47:13;29.80;51.40
7738;DHT22;29398;45.328;5.558;2022-09-01T16:48:26;29.80;51.50
7738;DHT22;29398;45.328;5.558;2022-09-01T16:49:35;29.80;51.90
7738;DHT22;29398;45.328;5.558;2022-09-01T16:50:43;29.80;51.80
7738;DHT22;29398;45.328;5.558;2022-09-01T16:51:54;29.80;51.70
7738;DHT22;29398;45.328;5.558;2022-09-01T16:53:14;29.80;51.20
7738;DHT22;29398;45.328;5.558;2022-09-01T16:54:20;29.70;52.20
7738;DHT22;29398;45.328;5.558;2022-09-01T16:56:31;29.60;52.00
7738;DHT22;29398;45.328;5.558;2022-09-01T16:57:40;29.60;52.80
7738;DHT22;29398;45.328;5.558;2022-09-01T16:58:51;29.60;53.20
7738;DHT22;29398;45.328;5.558;2022-09-01T16:59:58;29.50;52.60
7738;DHT22;29398;45.328;5.558;2022-09-01T17:01:13;29.50;52.70
7738;DHT22;29398;45.328;5.558;2022-09-01T17:02:31;29.40;52.80
7738;DHT22;29398;45.328;5.558;2022-09-01T17:03:42;29.40;52.90